Observations for PERUGIA, Italy (LIRZ)

LIRZ 201950Z 02003KT 350V050 CAVOK 05/01 Q1025  
LIRZ 201850Z 02006KT CAVOK 05/01 Q1024  
LIRZ 201750Z 13003KT CAVOK 08/01 Q1024  
LIRZ 201650Z 13003KT CAVOK 11/01 Q1023  
LIRZ 201550Z VRB02KT CAVOK 12/01 Q1023  
LIRZ 201450Z VRB02KT CAVOK 13/02 Q1024  
LIRZ 201350Z VRB02KT CAVOK 12/02 Q1024  
LIRZ 201250Z VRB02KT CAVOK 12/03 Q1024  
LIRZ 201150Z VRB04KT CAVOK 11/02 Q1024  
LIRZ 201050Z VRB02KT 8000 FEW040 10/02 Q1025
LIRZ 200950Z VRB02KT 7000 SCT030 08/03 Q1025
LIRZ 200850Z VRB02KT 7000 SCT030 05/02 Q1025
LIRZ 200750Z 36003KT 6000 BKN030 03/01 Q1025
LIRZ 200650Z 36002KT 5000 BR BKN030 03/01 Q1024 
LIRZ 200550Z AUTO VRB02KT 6000 BKN034/// 02/01 Q1024
LIRZ 200550Z AUTO VRB02KT 6000 BKN034 02/01 Q1024
LIRZ 200450Z AUTO 01003KT 6000 OVC036/// 02/01 Q1024
LIRZ 200450Z AUTO 01003KT 6000 OVC036 02/01 Q1024
LIRZ 200350Z AUTO VRB02KT 6000 OVC035/// 02/01 Q1024
LIRZ 200350Z AUTO VRB02KT 6000 OVC035 02/01 Q1024
LIRZ 200250Z AUTO 35003KT 290V030 6000 BKN035/// 02/01 Q1024
LIRZ 200250Z AUTO 35003KT 290V030 6000 BKN035 02/01 Q1024
LIRZ 200150Z AUTO 01004KT 6000 OVC034/// 01/00 Q1024
LIRZ 200150Z AUTO 01004KT 6000 OVC034 01/00 Q1024
LIRZ 200050Z AUTO 36006KT 5000 BR NCD 01/M00 Q1024  
LIRZ 192350Z AUTO VRB02KT 6000 NCD 00/M01 Q1024 
LIRZ 192250Z AUTO 36004KT 7000 NCD 01/M00 Q1024 
LIRZ 192150Z 36005KT 7000 NSC 01/M00 Q1023  
LIRZ 192050Z 01006KT 7000 NSC 02/01 Q1023   
LIRZ 191950Z 35004KT 7000 FEW040 04/01 Q1023